Time;durP1;ratioP1;P1;durP2;ratioP2;P2;SDS_P1;SDS_P2;PMS_P1;PMS_P2;Temp;Humidity;BMP_temperature;BMP_pressure;BME280_temperature;BME280_humidity;BME280_pressure;Samples;Min_cycle;Max_cycle;Signal;HPM_P1;HPM_P2
2023/01/10 00:01:03;;;;;;;18.48;10.05;;;;;;;;;;1900760;75;21212;-47
2023/01/10 00:03:32;;;;;;;25.68;10.65;;;;;;;;;;1883140;76;21034;-48
2023/01/10 00:06:00;;;;;;;21.62;10.05;;;;;;;;;;1882882;76;21019;-48
2023/01/10 00:08:29;;;;;;;25.80;11.05;;;;;;;;;;1882913;76;21050;-47
2023/01/10 00:10:57;;;;;;;17.45;10.35;;;;;;;;;;1882893;76;21022;-46
2023/01/10 00:13:25;;;;;;;20.68;9.43;;;;;;;;;;1882972;76;21054;-47
2023/01/10 00:15:55;;;;;;;23.85;11.08;;;;;;;;;;1882838;76;21050;-47
2023/01/10 00:18:23;;;;;;;21.42;10.35;;;;;;;;;;1882826;76;21018;-47
2023/01/10 00:20:52;;;;;;;23.32;10.13;;;;;;;;;;1882934;76;21051;-47
2023/01/10 00:23:21;;;;;;;13.40;8.43;;;;;;;;;;1882869;76;21046;-46
2023/01/10 00:25:50;;;;;;;16.50;9.23;;;;;;;;;;1882996;76;21120;-47
2023/01/10 00:28:18;;;;;;;17.30;10.03;;;;;;;;;;1882867;76;21160;-48
2023/01/10 00:31:00;;;;;;;19.73;9.70;;;;;;;;;;1882911;76;21030;-46
2023/01/10 00:33:26;;;;;;;20.57;10.53;;;;;;;;;;1882584;76;21128;-46
2023/01/10 00:35:55;;;;;;;26.48;10.40;;;;;;;;;;1882829;76;21129;-47
2023/01/10 00:38:24;;;;;;;16.65;10.35;;;;;;;;;;1882859;76;21109;-46
2023/01/10 00:40:53;;;;;;;15.18;10.60;;;;;;;;;;1882884;76;21112;-47
2023/01/10 00:46:09;;;;;;;15.40;9.25;;;;;;;;;;1882929;76;21148;-47
2023/01/10 00:48:38;;;;;;;17.73;10.72;;;;;;;;;;1882914;76;21042;-47
2023/01/10 00:51:06;;;;;;;17.82;10.30;;;;;;;;;;1882870;76;21027;-46
2023/01/10 00:53:35;;;;;;;19.92;9.58;;;;;;;;;;1882830;76;21023;-46
2023/01/10 00:56:03;;;;;;;19.20;9.38;;;;;;;;;;1882780;76;21058;-47
2023/01/10 00:58:32;;;;;;;16.35;8.88;;;;;;;;;;1882958;76;21108;-46
2023/01/10 01:01:01;;;;;;;22.60;10.55;;;;;;;;;;1882871;76;21034;-47
2023/01/10 01:03:30;;;;;;;23.45;10.40;;;;;;;;;;1882978;76;21046;-46
2023/01/10 01:05:59;;;;;;;20.92;9.98;;;;;;;;;;1882865;76;21070;-46
2023/01/10 01:08:28;;;;;;;17.77;8.58;;;;;;;;;;1882502;76;21131;-47
2023/01/10 01:10:57;;;;;;;18.50;10.50;;;;;;;;;;1882879;76;21015;-49
2023/01/10 01:13:25;;;;;;;16.87;8.90;;;;;;;;;;1882951;76;21120;-46
2023/01/10 01:15:55;;;;;;;18.25;10.40;;;;;;;;;;1882805;76;21055;-48
2023/01/10 01:18:24;;;;;;;13.40;8.85;;;;;;;;;;1882898;76;20995;-46
2023/01/10 01:20:59;;;;;;;14.15;8.88;;;;;;;;;;1855705;76;21132;-46
2023/01/10 01:23:27;;;;;;;15.28;9.70;;;;;;;;;;1854965;77;22140;-48
2023/01/10 01:25:56;;;;;;;27.10;10.32;;;;;;;;;;1884804;76;21068;-46
2023/01/10 01:28:25;;;;;;;18.60;9.05;;;;;;;;;;1884919;76;21010;-48
2023/01/10 01:30:54;;;;;;;20.35;8.83;;;;;;;;;;1878358;76;21038;-48
2023/01/10 01:33:22;;;;;;;23.20;9.33;;;;;;;;;;1878408;76;21046;-46
2023/01/10 01:35:51;;;;;;;14.93;8.90;;;;;;;;;;1884600;76;21116;-47
2023/01/10 01:38:20;;;;;;;20.32;9.75;;;;;;;;;;1878210;76;21116;-47
2023/01/10 01:40:49;;;;;;;20.35;9.75;;;;;;;;;;1884702;76;21167;-47
2023/01/10 01:43:28;;;;;;;17.48;9.70;;;;;;;;;;1878151;76;21038;-46
2023/01/10 01:45:58;;;;;;;18.25;9.20;;;;;;;;;;1878236;76;21571;-46
2023/01/10 01:48:30;;;;;;;20.75;9.63;;;;;;;;;;1884785;76;21006;-46
2023/01/10 01:51:06;;;;;;;15.80;7.85;;;;;;;;;;1878522;76;21070;-46
2023/01/10 01:53:31;;;;;;;18.17;9.80;;;;;;;;;;1876622;76;21096;-46
2023/01/10 01:56:01;;;;;;;20.65;10.50;;;;;;;;;;1878219;76;21120;-46
2023/01/10 01:58:31;;;;;;;18.45;9.75;;;;;;;;;;1854753;77;21113;-48
2023/01/10 02:01:00;;;;;;;15.43;8.65;;;;;;;;;;1854221;77;21031;-47
2023/01/10 02:03:29;;;;;;;17.45;10.38;;;;;;;;;;1854818;77;21156;-48
2023/01/10 02:05:58;;;;;;;20.02;9.65;;;;;;;;;;1854799;77;21093;-46
2023/01/10 02:08:27;;;;;;;14.73;9.55;;;;;;;;;;1854777;77;21055;-47
2023/01/10 02:11:07;;;;;;;17.20;8.68;;;;;;;;;;1854799;77;21159;-47
2023/01/10 02:13:37;;;;;;;16.60;8.95;;;;;;;;;;1854759;77;21042;-46
2023/01/10 02:16:06;;;;;;;15.18;9.00;;;;;;;;;;1854646;77;21098;-46
2023/01/10 02:18:35;;;;;;;17.87;8.68;;;;;;;;;;1854658;77;21089;-46
2023/01/10 02:21:07;;;;;;;17.90;9.25;;;;;;;;;;1878969;76;21050;-47
2023/01/10 02:23:56;;;;;;;11.88;7.22;;;;;;;;;;1882910;76;20995;-46
2023/01/10 02:26:42;;;;;;;12.98;7.45;;;;;;;;;;1881360;76;21116;-47
2023/01/10 02:29:29;;;;;;;19.95;9.48;;;;;;;;;;1882794;76;21053;-47
2023/01/10 02:32:18;;;;;;;17.48;9.50;;;;;;;;;;1882797;76;21053;-46
2023/01/10 02:35:04;;;;;;;19.07;9.85;;;;;;;;;;1882735;76;21031;-47
2023/01/10 02:37:34;;;;;;;22.20;9.78;;;;;;;;;;1882794;76;21121;-47
2023/01/10 02:40:21;;;;;;;10.30;5.83;;;;;;;;;;1882798;76;21030;-46
2023/01/10 02:42:51;;;;;;;9.73;6.50;;;;;;;;;;1882758;76;21128;-47
2023/01/10 02:45:28;;;;;;;14.28;8.23;;;;;;;;;;1874381;76;21089;-46
2023/01/10 02:47:57;;;;;;;14.47;6.55;;;;;;;;;;1882816;76;21058;-46
2023/01/10 02:50:34;;;;;;;22.25;9.28;;;;;;;;;;1882949;76;21100;-47
2023/01/10 02:53:20;;;;;;;18.70;8.75;;;;;;;;;;1882957;76;21058;-47
2023/01/10 02:55:50;;;;;;;15.08;6.90;;;;;;;;;;1882854;76;21086;-47
2023/01/10 02:58:29;;;;;;;10.95;5.80;;;;;;;;;;1881278;76;21573;-47
2023/01/10 03:01:05;;;;;;;7.25;5.15;;;;;;;;;;1881467;76;21034;-46
2023/01/10 03:03:34;;;;;;;18.25;7.80;;;;;;;;;;1883035;76;21040;-46
2023/01/10 03:06:06;;;;;;;18.77;9.85;;;;;;;;;;1881384;76;21070;-46
2023/01/10 03:08:35;;;;;;;14.58;7.25;;;;;;;;;;1882208;76;21062;-46
2023/01/10 03:11:05;;;;;;;11.05;6.42;;;;;;;;;;1882623;76;21027;-48
2023/01/10 03:13:47;;;;;;;6.25;4.25;;;;;;;;;;1882037;76;21059;-47
2023/01/10 03:16:17;;;;;;;17.95;10.03;;;;;;;;;;1882750;76;21029;-47
2023/01/10 03:18:46;;;;;;;14.33;7.95;;;;;;;;;;1882986;76;21089;-47
2023/01/10 03:21:16;;;;;;;12.85;7.17;;;;;;;;;;1882932;76;21124;-46
2023/01/10 03:23:45;;;;;;;11.08;6.15;;;;;;;;;;1882883;76;21058;-48
2023/01/10 03:26:15;;;;;;;13.32;6.42;;;;;;;;;;1882975;76;21117;-46
2023/01/10 03:28:51;;;;;;;10.45;6.85;;;;;;;;;;1883030;76;21093;-46
2023/01/10 03:31:24;;;;;;;17.20;9.90;;;;;;;;;;1882895;76;21062;-47
2023/01/10 03:33:52;;;;;;;11.38;6.72;;;;;;;;;;1882315;76;21030;-49
2023/01/10 03:36:35;;;;;;;15.32;6.75;;;;;;;;;;1883016;76;21108;-47
2023/01/10 03:39:14;;;;;;;21.15;9.45;;;;;;;;;;1882952;76;21008;-47
2023/01/10 03:41:44;;;;;;;20.35;9.20;;;;;;;;;;1882997;76;21092;-46
2023/01/10 03:47:02;;;;;;;21.60;9.48;;;;;;;;;;1882957;76;21555;-46
2023/01/10 03:49:31;;;;;;;20.50;9.58;;;;;;;;;;1882499;76;21030;-46
2023/01/10 03:52:00;;;;;;;13.53;6.87;;;;;;;;;;1883002;76;21063;-47
2023/01/10 03:54:33;;;;;;;13.03;9.30;;;;;;;;;;1882891;76;21051;-46
2023/01/10 03:57:00;;;;;;;11.00;6.40;;;;;;;;;;1882195;76;21101;-46
2023/01/10 03:59:29;;;;;;;13.62;7.92;;;;;;;;;;1882928;76;21051;-46
2023/01/10 04:01:58;;;;;;;11.40;5.40;;;;;;;;;;1882988;76;21085;-46
2023/01/10 04:04:27;;;;;;;8.65;5.15;;;;;;;;;;1882884;76;21041;-48
2023/01/10 04:06:56;;;;;;;16.27;8.30;;;;;;;;;;1882888;76;21027;-46
2023/01/10 04:09:24;;;;;;;11.57;4.85;;;;;;;;;;1882875;76;21081;-46
2023/01/10 04:11:52;;;;;;;8.60;4.80;;;;;;;;;;1882887;76;21073;-47
2023/01/10 04:14:21;;;;;;;10.45;7.30;;;;;;;;;;1882856;76;21034;-47
2023/01/10 04:16:50;;;;;;;14.43;6.15;;;;;;;;;;1882833;76;21106;-47
2023/01/10 04:19:19;;;;;;;16.73;9.95;;;;;;;;;;1882840;76;21047;-47
2023/01/10 04:21:47;;;;;;;14.35;9.03;;;;;;;;;;1860467;76;21062;-48
2023/01/10 04:24:16;;;;;;;14.45;8.55;;;;;;;;;;1854673;77;21054;-47
2023/01/10 04:26:45;;;;;;;8.05;5.75;;;;;;;;;;1854700;77;21046;-48
2023/01/10 04:29:14;;;;;;;17.40;7.78;;;;;;;;;;1854701;77;21045;-46
2023/01/10 04:31:42;;;;;;;8.48;5.62;;;;;;;;;;1854708;77;21078;-47
2023/01/10 04:34:11;;;;;;;11.08;6.78;;;;;;;;;;1854722;77;21050;-46
2023/01/10 04:36:40;;;;;;;9.33;5.60;;;;;;;;;;1854672;77;21129;-47
2023/01/10 04:39:08;;;;;;;7.58;5.12;;;;;;;;;;1854765;77;21026;-46
2023/01/10 04:41:37;;;;;;;16.57;7.65;;;;;;;;;;1854751;77;21042;-46
2023/01/10 04:44:06;;;;;;;11.22;5.72;;;;;;;;;;1884713;76;21038;-46
2023/01/10 04:46:35;;;;;;;6.50;4.87;;;;;;;;;;1878361;76;21046;-46
2023/01/10 04:49:03;;;;;;;15.13;7.62;;;;;;;;;;1878256;76;21069;-47
2023/01/10 04:51:32;;;;;;;13.03;8.28;;;;;;;;;;1884702;76;21038;-47
2023/01/10 04:54:01;;;;;;;13.00;6.12;;;;;;;;;;1878150;76;21116;-46
2023/01/10 04:56:29;;;;;;;9.43;7.08;;;;;;;;;;1884706;76;21081;-48
2023/01/10 04:58:58;;;;;;;13.88;7.15;;;;;;;;;;1878196;76;21108;-46
2023/01/10 05:01:27;;;;;;;11.05;5.62;;;;;;;;;;1878274;76;21050;-47
2023/01/10 05:03:55;;;;;;;16.70;8.30;;;;;;;;;;1884696;76;21022;-46
2023/01/10 05:06:24;;;;;;;12.47;6.95;;;;;;;;;;1878202;76;21038;-46
2023/01/10 05:08:53;;;;;;;18.37;9.93;;;;;;;;;;1884634;76;21108;-47
2023/01/10 05:11:21;;;;;;;17.35;8.98;;;;;;;;;;1878187;76;21096;-47
2023/01/10 05:13:50;;;;;;;10.72;5.33;;;;;;;;;;1878170;76;21074;-48
2023/01/10 05:16:19;;;;;;;16.15;9.20;;;;;;;;;;1884745;76;21083;-46
2023/01/10 05:18:47;;;;;;;9.58;6.80;;;;;;;;;;1878070;76;21050;-46
2023/01/10 05:21:18;;;;;;;20.52;5.47;;;;;;;;;;1884646;75;21065;-47
2023/01/10 05:23:46;;;;;;;19.15;6.05;;;;;;;;;;1878248;76;21522;-47
2023/01/10 05:26:16;;;;;;;9.45;5.12;;;;;;;;;;1884640;76;21022;-47
2023/01/10 05:28:44;;;;;;;13.98;7.55;;;;;;;;;;1878287;76;21046;-48
2023/01/10 05:31:14;;;;;;;5.83;3.45;;;;;;;;;;1884627;76;21010;-47
2023/01/10 05:33:44;;;;;;;12.23;5.47;;;;;;;;;;1878183;76;21034;-47
2023/01/10 05:36:13;;;;;;;10.88;5.70;;;;;;;;;;1884606;76;21030;-47
2023/01/10 05:38:41;;;;;;;15.38;8.15;;;;;;;;;;1878124;76;21131;-48
2023/01/10 05:41:11;;;;;;;16.82;9.25;;;;;;;;;;1884637;76;21188;-46
2023/01/10 05:43:40;;;;;;;13.55;7.17;;;;;;;;;;1878231;76;21054;-46
2023/01/10 05:46:08;;;;;;;10.98;5.47;;;;;;;;;;1884760;76;21034;-47
2023/01/10 05:48:37;;;;;;;7.00;4.20;;;;;;;;;;1878264;76;21030;-46
2023/01/10 05:51:06;;;;;;;13.45;5.95;;;;;;;;;;1884678;76;21022;-47
2023/01/10 05:53:35;;;;;;;15.30;7.60;;;;;;;;;;1878296;76;21042;-47
2023/01/10 05:56:04;;;;;;;13.10;6.05;;;;;;;;;;1884607;76;21050;-47
2023/01/10 05:58:32;;;;;;;14.87;6.25;;;;;;;;;;1878120;76;21054;-46
2023/01/10 06:01:01;;;;;;;14.75;8.85;;;;;;;;;;1884653;76;21023;-47
2023/01/10 06:03:29;;;;;;;21.07;11.73;;;;;;;;;;1878136;76;21065;-48
2023/01/10 06:05:58;;;;;;;22.50;9.05;;;;;;;;;;1845121;78;21062;-48
2023/01/10 06:08:26;;;;;;;16.97;10.50;;;;;;;;;;1878162;76;21051;-47
2023/01/10 06:10:55;;;;;;;13.28;7.97;;;;;;;;;;1845107;78;21109;-48
2023/01/10 06:13:24;;;;;;;16.73;10.03;;;;;;;;;;1878199;76;21046;-49
2023/01/10 06:15:53;;;;;;;19.80;8.65;;;;;;;;;;1845107;78;21058;-48
2023/01/10 06:18:21;;;;;;;16.97;7.20;;;;;;;;;;1878228;76;21119;-47
2023/01/10 06:20:51;;;;;;;12.18;7.53;;;;;;;;;;1884661;76;21077;-49
2023/01/10 06:23:20;;;;;;;16.90;8.08;;;;;;;;;;1878128;76;21108;-47
2023/01/10 06:25:50;;;;;;;18.35;8.93;;;;;;;;;;1884646;76;21058;-47
2023/01/10 06:28:18;;;;;;;13.30;7.97;;;;;;;;;;1877614;76;21030;-47
2023/01/10 06:30:47;;;;;;;10.82;5.83;;;;;;;;;;1884739;76;21042;-47
2023/01/10 06:33:16;;;;;;;19.70;12.03;;;;;;;;;;1878270;76;21116;-47
2023/01/10 06:35:46;;;;;;;15.80;6.90;;;;;;;;;;1845233;78;21050;-48
2023/01/10 06:38:15;;;;;;;11.48;5.22;;;;;;;;;;1878291;76;21498;-48
2023/01/10 06:40:43;;;;;;;15.43;8.08;;;;;;;;;;1884775;76;21014;-48
2023/01/10 06:43:12;;;;;;;8.83;6.58;;;;;;;;;;1878382;76;21046;-47
2023/01/10 06:45:41;;;;;;;16.90;7.28;;;;;;;;;;1884765;76;21123;-48
2023/01/10 06:48:09;;;;;;;13.72;7.65;;;;;;;;;;1878254;76;21034;-48
2023/01/10 06:50:38;;;;;;;15.40;8.55;;;;;;;;;;1884737;76;21046;-48
2023/01/10 06:53:07;;;;;;;8.73;5.12;;;;;;;;;;1878372;76;21112;-49
2023/01/10 06:55:35;;;;;;;16.67;7.95;;;;;;;;;;1854728;77;21015;-48
2023/01/10 06:58:04;;;;;;;18.32;8.50;;;;;;;;;;1854684;77;21128;-47
2023/01/10 07:00:33;;;;;;;11.35;6.78;;;;;;;;;;1884718;76;21014;-47
2023/01/10 07:03:01;;;;;;;10.05;5.58;;;;;;;;;;1878213;76;21046;-47
2023/01/10 07:05:30;;;;;;;4.65;3.87;;;;;;;;;;1878288;76;21139;-49
2023/01/10 07:08:00;;;;;;;11.12;6.47;;;;;;;;;;1884752;76;21046;-47
2023/01/10 07:10:30;;;;;;;8.68;4.78;;;;;;;;;;1878225;76;21045;-49
2023/01/10 07:12:59;;;;;;;3.30;2.42;;;;;;;;;;1884709;76;21022;-48
2023/01/10 07:15:29;;;;;;;4.58;3.42;;;;;;;;;;1878209;76;21022;-48
2023/01/10 07:18:00;;;;;;;5.87;5.22;;;;;;;;;;1884703;76;21029;-47
2023/01/10 07:20:28;;;;;;;7.85;4.53;;;;;;;;;;1878384;76;21065;-48
2023/01/10 07:22:59;;;;;;;15.30;7.00;;;;;;;;;;1895918;75;21073;-48
2023/01/10 07:25:28;;;;;;;10.55;5.33;;;;;;;;;;1900669;75;21025;-49
2023/01/10 07:27:57;;;;;;;9.70;6.37;;;;;;;;;;1901508;75;21045;-47
2023/01/10 07:30:26;;;;;;;4.30;2.77;;;;;;;;;;1900549;75;21034;-47
2023/01/10 07:33:00;;;;;;;9.30;5.62;;;;;;;;;;1901494;75;21123;-48
2023/01/10 07:35:28;;;;;;;8.85;5.97;;;;;;;;;;1900523;74;21516;-48
2023/01/10 07:37:59;;;;;;;2.77;2.52;;;;;;;;;;1901555;75;21115;-48
2023/01/10 07:40:28;;;;;;;4.97;3.30;;;;;;;;;;1900432;75;21049;-48
2023/01/10 07:42:57;;;;;;;10.32;6.42;;;;;;;;;;1901433;75;21103;-48
2023/01/10 07:45:29;;;;;;;8.53;6.75;;;;;;;;;;1900460;75;21013;-49
2023/01/10 07:47:58;;;;;;;8.65;6.25;;;;;;;;;;1901196;75;21111;-46
2023/01/10 07:50:28;;;;;;;7.90;4.37;;;;;;;;;;1900036;74;21414;-46
2023/01/10 07:52:57;;;;;;;15.55;7.55;;;;;;;;;;1889210;75;21029;-45
2023/01/10 07:55:26;;;;;;;14.35;6.70;;;;;;;;;;1864793;77;21032;-46
2023/01/10 07:57:55;;;;;;;8.90;6.03;;;;;;;;;;1845953;78;21058;-47
2023/01/10 08:00:24;;;;;;;5.45;4.40;;;;;;;;;;1845915;78;21068;-47
2023/01/10 08:02:56;;;;;;;10.45;6.05;;;;;;;;;;1858721;76;21128;-46
2023/01/10 08:05:24;;;;;;;8.78;5.08;;;;;;;;;;1900309;75;21050;-46
2023/01/10 08:07:55;;;;;;;8.58;5.05;;;;;;;;;;1882799;76;21027;-46
2023/01/10 08:10:24;;;;;;;8.68;5.12;;;;;;;;;;1882737;76;21096;-47
2023/01/10 08:12:53;;;;;;;6.33;2.87;;;;;;;;;;1882782;76;21034;-47
2023/01/10 08:15:22;;;;;;;8.53;6.42;;;;;;;;;;1880792;76;21128;-46
2023/01/10 08:17:50;;;;;;;16.57;6.97;;;;;;;;;;1850227;76;21142;-46
2023/01/10 08:20:22;;;;;;;16.48;6.85;;;;;;;;;;1860299;76;21054;-45
2023/01/10 08:22:50;;;;;;;5.87;3.58;;;;;;;;;;1857303;76;21136;-47
2023/01/10 08:25:19;;;;;;;6.65;3.30;;;;;;;;;;1855249;76;21093;-46
2023/01/10 08:27:48;;;;;;;13.30;7.12;;;;;;;;;;1882154;74;21039;-47
2023/01/10 08:30:17;;;;;;;4.17;3.47;;;;;;;;;;1872126;77;21108;-44
2023/01/10 08:32:46;;;;;;;12.43;6.78;;;;;;;;;;1918519;74;21075;-44
2023/01/10 08:35:15;;;;;;;7.22;5.47;;;;;;;;;;1934722;74;21023;-41
2023/01/10 08:37:44;;;;;;;6.35;3.00;;;;;;;;;;1934869;74;21020;-44
2023/01/10 08:40:12;;;;;;;19.20;6.80;;;;;;;;;;1934554;74;21074;-44
2023/01/10 08:42:41;;;;;;;16.32;6.03;;;;;;;;;;1934826;74;21106;-42
2023/01/10 08:45:10;;;;;;;13.60;5.78;;;;;;;;;;1934269;74;21147;-44
2023/01/10 08:47:39;;;;;;;7.85;5.05;;;;;;;;;;1934587;74;21039;-44
2023/01/10 08:50:09;;;;;;;4.37;3.35;;;;;;;;;;1934799;74;21157;-45
2023/01/10 08:52:38;;;;;;;3.95;2.35;;;;;;;;;;1934527;74;21075;-45
2023/01/10 08:55:07;;;;;;;7.17;3.77;;;;;;;;;;1934792;74;21051;-47
2023/01/10 08:57:35;;;;;;;4.00;2.45;;;;;;;;;;1934750;74;21035;-44
2023/01/10 09:00:05;;;;;;;8.73;5.10;;;;;;;;;;1910472;74;21109;-44
2023/01/10 09:02:34;;;;;;;6.60;3.35;;;;;;;;;;1904265;75;21027;-44
2023/01/10 09:05:02;;;;;;;4.12;3.72;;;;;;;;;;1904641;75;21098;-44
2023/01/10 09:07:31;;;;;;;4.28;3.52;;;;;;;;;;1904147;75;21074;-48
2023/01/10 12:24:51;;;;;;;12.23;6.78;;;-0.70;66.70;;;;;;1959420;73;25644;-44
2023/01/10 12:27:22;;;;;;;11.00;6.28;;;-0.70;68.50;;;;;;1918495;74;21039;-44
2023/01/10 12:29:53;;;;;;;5.22;4.67;;;-0.70;68.40;;;;;;1918427;75;21015;-44
2023/01/10 12:32:28;;;;;;;4.70;3.25;;;-0.60;66.20;;;;;;1877037;76;21531;-44
2023/01/10 12:34:59;;;;;;;4.92;4.42;;;-0.60;67.60;;;;;;1866033;77;21520;-44
2023/01/10 12:37:37;;;;;;;8.55;5.00;;;-0.60;67.40;;;;;;1848374;77;21029;-44
2023/01/10 12:40:11;;;;;;;4.90;4.05;;;-0.60;67.10;;;;;;1865566;77;21027;-45
2023/01/10 12:45:30;;;;;;;8.38;5.33;;;-0.60;66.20;;;;;;1866020;77;20182;-44
2023/01/10 12:48:08;;;;;;;5.45;4.35;;;-0.60;67.30;;;;;;1866125;77;21101;-44
2023/01/10 12:50:42;;;;;;;12.90;7.20;;;-0.60;66.40;;;;;;1865286;77;21035;-44
2023/01/10 12:53:23;;;;;;;15.43;5.53;;;-0.50;67.70;;;;;;1866092;77;21024;-44
2023/01/10 12:55:55;;;;;;;8.93;5.10;;;-0.50;68.80;;;;;;1866066;77;21125;-44
2023/01/10 12:58:32;;;;;;;9.15;4.55;;;-0.50;68.50;;;;;;1866016;77;21459;-45
2023/01/10 13:01:03;;;;;;;12.07;6.55;;;-0.40;68.30;;;;;;1858973;77;21067;-46
2023/01/10 13:03:34;;;;;;;9.20;5.15;;;-0.40;67.60;;;;;;1866054;77;21117;-44
2023/01/10 13:06:03;;;;;;;12.55;6.37;;;-0.40;68.20;;;;;;1866011;77;21150;-44
2023/01/10 13:08:37;;;;;;;7.62;4.53;;;-0.40;69.20;;;;;;1866070;77;21023;-45
2023/01/10 13:11:08;;;;;;;8.75;4.97;;;-0.30;68.90;;;;;;1866178;77;21544;-45
2023/01/10 13:13:49;;;;;;;9.43;5.42;;;-0.30;68.50;;;;;;1866030;77;21478;-44
2023/01/10 13:16:22;;;;;;;7.92;4.12;;;-0.30;68.20;;;;;;1865643;77;21066;-46
2023/01/10 13:19:00;;;;;;;;;;;-0.30;67.50;;;;;;1868836;77;21030;-46
2023/01/10 13:21:31;;;;;;;10.05;5.60;;;-0.30;66.50;;;;;;1865997;77;20423;-46
2023/01/10 13:24:03;;;;;;;11.73;5.33;;;-0.30;68.10;;;;;;1860469;77;21048;-47
2023/01/10 13:26:53;;;;;;;14.13;7.58;;;-0.30;68.60;;;;;;1904823;74;21105;-44
2023/01/10 13:29:25;;;;;;;7.15;3.65;;;-0.30;69.10;;;;;;1906097;75;21093;-45
2023/01/10 13:31:58;;;;;;;12.53;6.12;;;-0.30;67.20;;;;;;1869737;77;21010;-45
2023/01/10 13:34:35;;;;;;;25.35;5.60;;;-0.30;68.20;;;;;;1905912;75;21035;-45
2023/01/10 13:37:16;;;;;;;8.80;4.25;;;-0.40;68.00;;;;;;1905369;75;21109;-45
2023/01/10 13:39:47;;;;;;;8.53;4.53;;;-0.40;67.90;;;;;;1901100;74;21406;-45
2023/01/10 13:45:25;;;;;;;10.80;5.70;;;-0.40;68.20;;;;;;1905437;75;21145;-45
2023/01/10 13:47:57;;;;;;;11.93;7.12;;;-0.40;69.70;;;;;;1905522;75;21080;-44
2023/01/10 13:50:41;;;;;;;8.73;6.03;;;-0.40;70.00;;;;;;1905571;75;21446;-45
2023/01/10 13:53:07;;;;;;;14.63;6.55;;;-0.40;69.90;;;;;;1901468;74;21023;-45
2023/01/10 13:55:52;;;;;;;10.15;5.65;;;-0.40;69.60;;;;;;1905607;75;21520;-45
2023/01/10 14:02:27;;;;;;;15.28;5.55;;;-0.40;70.50;;;;;;1905161;74;21075;-45
2023/01/10 14:03:49;;;;;;;8.73;5.20;;;-0.50;70.40;;;;;;1905436;74;21036;-44
2023/01/10 14:06:18;;;;;;;;;;;-0.50;70.40;;;;;;1908207;75;21039;-45
2023/01/10 14:08:53;;;;;;;11.08;5.33;;;-0.50;70.40;;;;;;1905454;75;20101;-44
2023/01/10 14:11:26;;;;;;;;;;;-0.50;71.10;;;;;;1908230;75;21046;-46
2023/01/10 14:13:58;;;;;;;8.58;5.33;;;-0.60;69.50;;;;;;1905442;75;20098;-45
2023/01/10 14:16:29;;;;;;;6.87;4.08;;;-0.60;69.80;;;;;;1905383;75;21474;-45
2023/01/10 14:18:59;;;;;;;3.98;2.85;;;-0.70;69.80;;;;;;1905639;75;21008;-44
2023/01/10 14:21:29;;;;;;;8.35;6.08;;;-0.80;69.70;;;;;;1869075;77;21006;-45
2023/01/10 14:23:59;;;;;;;8.83;5.00;;;-0.80;70.70;;;;;;1909843;74;21019;-44
2023/01/10 14:26:37;;;;;;;6.35;4.33;;;-0.80;70.40;;;;;;1924860;74;21046;-45
2023/01/10 14:29:11;;;;;;;5.15;3.70;;;-0.80;70.10;;;;;;1924903;74;21014;-47
2023/01/10 14:31:46;;;;;;;5.78;4.17;;;-0.90;69.30;;;;;;1924861;74;21167;-45
2023/01/10 14:34:30;;;;;;;4.83;2.67;;;-0.90;70.00;;;;;;1887439;76;21476;-45
2023/01/10 14:37:11;;;;;;;3.62;3.33;;;-0.90;69.30;;;;;;1878082;76;21010;-45
2023/01/10 14:39:42;;;;;;;5.00;2.87;;;-0.90;68.90;;;;;;1839337;76;21183;-45
2023/01/10 14:42:14;;;;;;;11.97;4.45;;;-1.00;69.70;;;;;;1878062;76;21108;-45
2023/01/10 14:44:51;;;;;;;5.70;3.65;;;-1.00;68.90;;;;;;1878115;76;21512;-45
2023/01/10 14:47:34;;;;;;;2.95;2.60;;;-1.10;69.20;;;;;;1878012;76;21061;-44
2023/01/10 14:50:04;;;;;;;9.20;4.87;;;-1.00;68.80;;;;;;1878061;76;21015;-44
2023/01/10 14:52:34;;;;;;;3.30;2.17;;;-1.00;69.40;;;;;;1878073;76;21038;-45
2023/01/10 14:55:05;;;;;;;11.05;4.05;;;-1.10;69.50;;;;;;1878145;76;21026;-44
2023/01/10 14:57:34;;;;;;;14.18;4.83;;;-1.10;69.40;;;;;;1854107;77;21033;-47
2023/01/10 15:00:06;;;;;;;7.35;4.72;;;-1.10;70.90;;;;;;1878078;76;21101;-45
2023/01/10 15:02:35;;;;;;;10.43;5.60;;;-1.10;70.40;;;;;;1877082;76;21153;-45
2023/01/10 15:05:10;;;;;;;8.80;5.20;;;-1.20;70.30;;;;;;1878089;76;21097;-44
2023/01/10 15:07:38;;;;;;;;;;;-1.10;70.90;;;;;;1879814;76;21062;-45
2023/01/10 15:10:26;;;;;;;4.95;2.70;;;-1.20;70.10;;;;;;1878075;76;20109;-44
2023/01/10 15:12:58;;;;;;;9.35;4.17;;;-1.20;70.30;;;;;;1878080;76;21053;-46
2023/01/10 15:15:36;;;;;;;7.75;2.83;;;-1.20;70.50;;;;;;1878052;76;21109;-45
2023/01/10 15:18:25;;;;;;;9.35;4.95;;;-1.30;70.40;;;;;;1878116;76;21097;-45
2023/01/10 15:20:55;;;;;;;6.85;3.75;;;-1.30;70.90;;;;;;1878091;76;21128;-44
2023/01/10 15:23:27;;;;;;;13.20;5.58;;;-1.30;71.00;;;;;;1878080;76;21058;-45
2023/01/10 15:25:58;;;;;;;8.65;4.08;;;-1.40;71.30;;;;;;1872823;76;21053;-44
2023/01/10 15:28:30;;;;;;;11.40;4.70;;;-1.40;71.30;;;;;;1871179;77;21035;-45
2023/01/10 15:30:59;;;;;;;11.20;5.40;;;-1.40;71.30;;;;;;1871334;77;21015;-46
2023/01/10 15:33:34;;;;;;;5.25;3.00;;;-1.40;71.60;;;;;;1871469;77;21148;-45
2023/01/10 15:36:06;;;;;;;;;;;-1.40;71.50;;;;;;1874102;76;21031;-44
2023/01/10 15:38:38;;;;;;;6.22;3.47;;;-1.40;71.60;;;;;;1871480;77;20360;-46
2023/01/10 15:41:07;;;;;;;5.37;3.50;;;-1.40;71.60;;;;;;1871353;77;21027;-45
2023/01/10 15:43:38;;;;;;;10.40;6.15;;;-1.50;72.00;;;;;;1871274;76;21050;-46
2023/01/10 15:46:13;;;;;;;7.17;4.62;;;-1.50;72.10;;;;;;1871299;76;21019;-45
2023/01/10 15:48:45;;;;;;;10.68;4.67;;;-1.50;72.40;;;;;;1869760;77;21059;-45
2023/01/10 15:51:16;;;;;;;7.28;4.67;;;-1.50;72.40;;;;;;1871424;77;21055;-44
2023/01/10 15:53:54;;;;;;;9.35;5.85;;;-1.50;72.40;;;;;;1871541;77;21096;-45
2023/01/10 15:56:26;;;;;;;8.88;4.28;;;-1.50;72.60;;;;;;1863999;77;21047;-44
2023/01/10 15:58:57;;;;;;;15.35;7.62;;;-1.50;72.40;;;;;;1871380;77;21481;-44
2023/01/10 16:01:26;;;;;;;7.42;5.42;;;-1.50;72.60;;;;;;1871439;77;21035;-45
2023/01/10 16:04:07;;;;;;;10.43;5.33;;;-1.60;72.80;;;;;;1871463;76;21150;-46
2023/01/10 16:06:37;;;;;;;10.88;4.12;;;-1.60;72.70;;;;;;1870746;77;21035;-45
2023/01/10 16:09:09;;;;;;;6.30;3.12;;;-1.60;72.50;;;;;;1871415;77;21039;-45
2023/01/10 16:14:37;;;;;;;6.03;4.03;;;-1.70;72.90;;;;;;1871222;76;21544;-45
2023/01/10 16:17:06;;;;;;;4.60;3.22;;;-1.80;72.90;;;;;;1871158;77;21039;-45
2023/01/10 16:19:35;;;;;;;7.62;3.77;;;-1.80;73.10;;;;;;1871275;77;21105;-45
2023/01/10 16:22:05;;;;;;;8.00;4.17;;;-1.80;73.20;;;;;;1871384;76;21027;-45
2023/01/10 16:24:36;;;;;;;3.52;3.22;;;-1.90;73.50;;;;;;1871347;77;21031;-45
2023/01/10 16:27:05;;;;;;;8.20;3.90;;;-1.90;73.20;;;;;;1871359;77;21035;-44
2023/01/10 16:29:36;;;;;;;6.12;4.47;;;-1.90;73.30;;;;;;1871475;77;21023;-46
2023/01/10 16:32:07;;;;;;;5.50;3.90;;;-1.90;73.30;;;;;;1871281;77;21039;-44
2023/01/10 16:34:37;;;;;;;4.47;3.75;;;-1.90;73.50;;;;;;1870436;77;21517;-44
2023/01/10 16:37:06;;;;;;;8.50;3.55;;;-1.90;73.50;;;;;;1871397;76;21129;-45
2023/01/10 16:39:35;;;;;;;16.40;5.25;;;-2.00;73.50;;;;;;1871323;77;21027;-45
2023/01/10 16:44:51;;;;;;;2.70;2.45;;;-2.00;73.60;;;;;;1871285;77;21051;-45
2023/01/10 16:47:20;;;;;;;5.45;4.15;;;-2.00;73.90;;;;;;1871313;77;21023;-45
2023/01/10 16:49:48;;;;;;;8.13;4.62;;;-2.10;74.00;;;;;;1871440;77;21137;-45
2023/01/10 16:52:18;;;;;;;7.22;4.30;;;-2.00;74.20;;;;;;1871280;77;21172;-46
2023/01/10 16:54:47;;;;;;;4.97;2.47;;;-2.10;74.10;;;;;;1871163;77;21023;-44
2023/01/10 16:57:16;;;;;;;3.12;2.45;;;-2.10;74.10;;;;;;1871121;77;21504;-45
2023/01/10 16:59:46;;;;;;;4.22;3.55;;;-2.10;73.90;;;;;;1871286;77;21038;-45
2023/01/10 17:02:18;;;;;;;9.98;4.65;;;-2.10;74.10;;;;;;1871229;77;21043;-45
2023/01/10 17:04:47;;;;;;;15.95;4.20;;;-2.10;74.20;;;;;;1871231;76;20995;-45
2023/01/10 17:07:16;;;;;;;9.23;4.58;;;-2.20;74.40;;;;;;1871266;77;21039;-45
2023/01/10 17:09:45;;;;;;;8.65;5.35;;;-2.20;74.50;;;;;;1871490;77;20999;-45
2023/01/10 17:12:18;;;;;;;1.87;1.60;;;-2.20;74.70;;;;;;1871548;77;21004;-45
2023/01/10 17:14:47;;;;;;;5.30;4.15;;;-2.20;74.50;;;;;;1871513;77;21050;-45
2023/01/10 17:17:16;;;;;;;7.35;4.37;;;-2.30;74.70;;;;;;1871524;77;21019;-46
2023/01/10 17:19:46;;;;;;;2.08;1.80;;;-2.30;74.90;;;;;;1871452;77;21474;-44
2023/01/10 17:22:15;;;;;;;6.50;4.22;;;-2.40;75.10;;;;;;1871405;77;21422;-45
2023/01/10 17:24:44;;;;;;;3.65;2.80;;;-2.40;75.40;;;;;;1871431;77;21023;-46
2023/01/10 17:27:13;;;;;;;9.00;3.92;;;-2.50;75.60;;;;;;1871460;77;21128;-44
2023/01/10 17:29:42;;;;;;;4.58;4.17;;;-2.50;75.70;;;;;;1871434;76;21058;-46
2023/01/10 17:32:12;;;;;;;5.10;4.20;;;-2.50;75.60;;;;;;1871531;77;21047;-44
2023/01/10 17:34:41;;;;;;;3.35;2.72;;;-2.60;75.50;;;;;;1871396;76;21130;-45
2023/01/10 17:37:10;;;;;;;6.03;3.85;;;-2.60;75.60;;;;;;1871379;77;21023;-45
2023/01/10 17:39:39;;;;;;;4.22;2.40;;;-2.60;75.60;;;;;;1871443;76;21059;-45
2023/01/10 17:42:08;;;;;;;2.75;2.47;;;-2.60;75.70;;;;;;1871410;77;21043;-44
2023/01/10 17:44:37;;;;;;;2.35;2.15;;;-2.60;75.60;;;;;;1871450;76;21121;-45
2023/01/10 17:47:06;;;;;;;4.03;2.52;;;-2.70;75.70;;;;;;1871353;77;21050;-44